Time;durP1;ratioP1;P1;durP2;ratioP2;P2;SDS_P1;SDS_P2;PMS_P1;PMS_P2;Temp;Humidity;BMP_temperature;BMP_pressure;BME280_temperature;BME280_humidity;BME280_pressure;Samples;Min_cycle;Max_cycle;Signal;HPM_P1;HPM_P2
2021/10/18 00:01:13;;;;;;;;;;;6.30;99.90;;;;;;5093503;28;19909;-73
2021/10/18 00:03:38;;;;;;;;;;;6.40;99.90;;;;;;5093116;28;19998;-73
2021/10/18 00:06:04;;;;;;;;;;;6.40;99.90;;;;;;5093271;28;20364;-74
2021/10/18 00:08:29;;;;;;;;;;;6.40;99.90;;;;;;5093348;28;19908;-73
2021/10/18 00:10:55;;;;;;;;;;;6.40;99.90;;;;;;5093082;28;19999;-73
2021/10/18 00:13:20;;;;;;;;;;;6.40;99.90;;;;;;5092908;28;19939;-73
2021/10/18 00:15:46;;;;;;;;;;;6.30;99.90;;;;;;5093091;28;20280;-75
2021/10/18 00:18:11;;;;;;;;;;;6.30;99.90;;;;;;5093184;28;19908;-73
2021/10/18 00:20:37;;;;;;;;;;;6.30;99.90;;;;;;5092975;28;19912;-73
2021/10/18 00:23:02;;;;;;;;;;;6.30;99.90;;;;;;5092663;28;19915;-73
2021/10/18 00:25:28;;;;;;;;;;;6.40;99.90;;;;;;5091330;28;19912;-75
2021/10/18 00:27:53;;;;;;;;;;;6.30;99.90;;;;;;5089787;28;20430;-73
2021/10/18 00:30:19;;;;;;;;;;;6.30;99.90;;;;;;5092321;28;19915;-73
2021/10/18 00:32:44;;;;;;;;;;;6.30;99.90;;;;;;5092620;28;20348;-73
2021/10/18 00:35:10;;;;;;;;;;;6.40;99.90;;;;;;5092578;28;19950;-73
2021/10/18 00:37:36;;;;;;;;;;;6.30;99.90;;;;;;5092758;28;19912;-73
2021/10/18 00:40:02;;;;;;;;;;;6.30;99.90;;;;;;5092454;28;20029;-73
2021/10/18 00:42:28;;;;;;;;;;;6.40;99.90;;;;;;5092189;28;20376;-73
2021/10/18 00:44:53;;;;;;;;;;;6.30;99.90;;;;;;5092328;28;19929;-73
2021/10/18 00:47:19;;;;;;;;;;;6.30;99.90;;;;;;5092659;28;19908;-74
2021/10/18 00:49:45;;;;;;;;;;;6.30;99.90;;;;;;5092869;28;19908;-73
2021/10/18 00:52:11;;;;;;;;;;;6.30;99.90;;;;;;5092372;28;20414;-75
2021/10/18 00:54:37;;;;;;;;;;;6.30;99.90;;;;;;5092105;28;19908;-74
2021/10/18 00:57:03;;;;;;;;;;;6.20;99.90;;;;;;5087965;28;19908;-74
2021/10/18 00:59:28;;;;;;;;;;;6.20;99.90;;;;;;5092273;28;19938;-73
2021/10/18 01:01:54;;;;;;;;;;;6.30;99.90;;;;;;5092138;28;19965;-73
2021/10/18 01:04:19;;;;;;;;;;;6.30;99.90;;;;;;5091904;28;20333;-73
2021/10/18 01:06:45;;;;;;;;;;;6.30;99.90;;;;;;5091938;28;19922;-74
2021/10/18 01:09:10;;;;;;;;;;;6.30;99.90;;;;;;5092099;28;19923;-73
2021/10/18 01:11:36;;;;;;;;;;;6.30;99.90;;;;;;5091970;28;19912;-73
2021/10/18 01:14:02;;;;;;;;;;;6.30;99.90;;;;;;5091695;28;19908;-73
2021/10/18 01:16:27;;;;;;;;;;;6.30;99.90;;;;;;5090630;28;19912;-75
2021/10/18 01:18:53;;;;;;;;;;;6.30;99.90;;;;;;5092376;28;19931;-73
2021/10/18 01:21:18;;;;;;;;;;;6.20;99.90;;;;;;5092289;28;19955;-72
2021/10/18 01:23:44;;;;;;;;;;;6.20;99.90;;;;;;5091277;28;20364;-73
2021/10/18 01:26:09;;;;;;;;;;;6.10;99.90;;;;;;5087441;28;19912;-75
2021/10/18 01:28:35;;;;;;;;;;;6.10;99.90;;;;;;5091648;28;19912;-73
2021/10/18 01:31:00;;;;;;;;;;;6.00;99.90;;;;;;5091879;28;19909;-73
2021/10/18 01:33:26;;;;;;;;;;;6.00;99.90;;;;;;5091507;28;19908;-75
2021/10/18 01:35:51;;;;;;;;;;;5.80;99.90;;;;;;5091767;28;19999;-72
2021/10/18 01:38:17;;;;;;;;;;;5.80;99.90;;;;;;5091508;28;20280;-73
2021/10/18 01:40:42;;;;;;;;;;;5.70;99.90;;;;;;5091234;28;19919;-73
2021/10/18 01:43:08;;;;;;;;;;;5.60;99.90;;;;;;5091116;28;19912;-74
2021/10/18 01:45:33;;;;;;;;;;;5.50;99.90;;;;;;5091608;28;20018;-73
2021/10/18 01:47:59;;;;;;;;;;;5.50;99.90;;;;;;5091717;28;19908;-73
2021/10/18 01:50:25;;;;;;;;;;;5.40;99.90;;;;;;5092031;28;20264;-73
2021/10/18 01:52:52;;;;;;;;;;;5.40;99.90;;;;;;5090870;28;19930;-73
2021/10/18 01:55:18;;;;;;;;;;;5.40;99.90;;;;;;5091299;28;20383;-73
2021/10/18 01:57:44;;;;;;;;;;;5.30;99.90;;;;;;5087283;28;20262;-72
2021/10/18 02:00:10;;;;;;;;;;;5.30;99.90;;;;;;5091381;28;19915;-73
2021/10/18 02:02:35;;;;;;;;;;;5.10;99.90;;;;;;5090909;28;20442;-73
2021/10/18 02:05:01;;;;;;;;;;;5.00;99.90;;;;;;5091198;28;19916;-73
2021/10/18 02:07:27;;;;;;;;;;;4.90;99.90;;;;;;5091132;28;20041;-73
2021/10/18 02:09:52;;;;;;;;;;;4.80;99.90;;;;;;5091289;28;19966;-74
2021/10/18 02:12:21;;;;;;;;;;;4.80;99.90;;;;;;5091070;28;19908;-73
2021/10/18 02:14:47;;;;;;;;;;;4.80;99.90;;;;;;5091180;28;20005;-73
2021/10/18 02:17:12;;;;;;;;;;;4.90;99.90;;;;;;5091124;28;20384;-74
2021/10/18 02:19:38;;;;;;;;;;;4.90;99.90;;;;;;5091247;28;19912;-72
2021/10/18 02:22:03;;;;;;;;;;;4.90;99.90;;;;;;5091080;28;19943;-73
2021/10/18 02:24:29;;;;;;;;;;;4.90;99.90;;;;;;5090586;28;19940;-73
2021/10/18 02:26:54;;;;;;;;;;;4.90;99.90;;;;;;5086948;28;20361;-73
2021/10/18 02:29:20;;;;;;;;;;;4.90;99.90;;;;;;5090945;28;19909;-72
2021/10/18 02:31:46;;;;;;;;;;;4.80;99.90;;;;;;5091108;28;19908;-73
2021/10/18 02:34:11;;;;;;;;;;;4.80;99.90;;;;;;5090519;28;19961;-75
2021/10/18 02:36:36;;;;;;;;;;;4.80;99.90;;;;;;5090962;28;20403;-72
2021/10/18 02:39:02;;;;;;;;;;;4.80;99.90;;;;;;5090812;28;19908;-73
2021/10/18 02:41:28;;;;;;;;;;;4.80;99.90;;;;;;5091002;28;19912;-73
2021/10/18 02:43:53;;;;;;;;;;;4.80;99.90;;;;;;5090417;28;20364;-74
2021/10/18 02:46:19;;;;;;;;;;;4.80;99.90;;;;;;5090907;28;19912;-73
2021/10/18 02:48:44;;;;;;;;;;;4.80;99.90;;;;;;5090962;28;19951;-73
2021/10/18 02:51:10;;;;;;;;;;;4.80;99.90;;;;;;5090905;28;19955;-73
2021/10/18 02:53:35;;;;;;;;;;;4.80;99.90;;;;;;5093574;28;19908;-73
2021/10/18 02:56:01;;;;;;;;;;;4.80;99.90;;;;;;5090631;28;19934;-72
2021/10/18 02:58:26;;;;;;;;;;;4.90;99.90;;;;;;5094443;28;19943;-72
2021/10/18 03:00:51;;;;;;;;;;;4.80;99.90;;;;;;5094672;28;19999;-75
2021/10/18 03:03:17;;;;;;;;;;;4.80;99.90;;;;;;5094182;28;19938;-73
2021/10/18 03:05:42;;;;;;;;;;;4.80;99.90;;;;;;5094395;28;19946;-73
2021/10/18 03:08:08;;;;;;;;;;;4.70;99.90;;;;;;5094303;28;20395;-74
2021/10/18 03:10:34;;;;;;;;;;;4.60;99.90;;;;;;5094562;28;19923;-73
2021/10/18 03:13:00;;;;;;;;;;;4.70;99.90;;;;;;5094141;28;19916;-75
2021/10/18 03:15:26;;;;;;;;;;;4.70;99.90;;;;;;5094250;28;19923;-74
2021/10/18 03:17:51;;;;;;;;;;;4.60;99.90;;;;;;5094480;28;19912;-74
2021/10/18 03:20:17;;;;;;;;;;;4.70;99.90;;;;;;5094138;28;20306;-74
2021/10/18 03:22:42;;;;;;;;;;;4.60;99.90;;;;;;5093688;28;20030;-74
2021/10/18 03:25:08;;;;;;;;;;;4.60;99.90;;;;;;5093895;28;19993;-73
2021/10/18 03:27:33;;;;;;;;;;;4.60;99.90;;;;;;5089933;28;19959;-73
2021/10/18 03:29:59;;;;;;;;;;;4.70;99.90;;;;;;5093753;28;19951;-74
2021/10/18 03:32:25;;;;;;;;;;;4.70;99.90;;;;;;5093782;28;19915;-74
2021/10/18 03:34:50;;;;;;;;;;;4.60;99.90;;;;;;5093802;28;19908;-74
2021/10/18 03:37:16;;;;;;;;;;;4.70;99.90;;;;;;5093876;28;19908;-72
2021/10/18 03:39:41;;;;;;;;;;;4.80;99.90;;;;;;5093697;28;19954;-73
2021/10/18 03:42:07;;;;;;;;;;;5.00;99.90;;;;;;5092567;28;19916;-76
2021/10/18 03:44:33;;;;;;;;;;;5.20;99.90;;;;;;5093344;28;20270;-73
2021/10/18 03:46:58;;;;;;;;;;;5.30;99.90;;;;;;5093647;28;19912;-74
2021/10/18 03:49:24;;;;;;;;;;;5.20;99.90;;;;;;5093719;28;20300;-74
2021/10/18 03:51:49;;;;;;;;;;;5.10;99.90;;;;;;5093448;28;19912;-74
2021/10/18 03:54:15;;;;;;;;;;;5.10;99.90;;;;;;5093263;28;19908;-75
2021/10/18 03:56:40;;;;;;;;;;;5.00;99.90;;;;;;5089267;28;19909;-73
2021/10/18 03:59:06;;;;;;;;;;;5.10;99.90;;;;;;5093350;28;20325;-73
2021/10/18 04:01:31;;;;;;;;;;;5.10;99.90;;;;;;5093400;28;20013;-74
2021/10/18 04:03:57;;;;;;;;;;;5.10;99.90;;;;;;5092834;28;19908;-73
2021/10/18 04:06:22;;;;;;;;;;;5.10;99.90;;;;;;5092992;28;20262;-73
2021/10/18 04:08:50;;;;;;;;;;;5.10;99.90;;;;;;5093307;28;19912;-73
2021/10/18 04:11:16;;;;;;;;;;;5.10;99.90;;;;;;5093215;28;20399;-75
2021/10/18 04:13:41;;;;;;;;;;;5.10;99.90;;;;;;5092944;28;19911;-72
2021/10/18 04:16:07;;;;;;;;;;;5.20;99.90;;;;;;5093253;28;20416;-72
2021/10/18 04:18:32;;;;;;;;;;;5.40;99.90;;;;;;5093343;28;20335;-73
2021/10/18 04:20:59;;;;;;;;;;;5.40;99.90;;;;;;5092850;28;19912;-72
2021/10/18 04:23:25;;;;;;;;;;;5.40;99.90;;;;;;5092318;28;19961;-73
2021/10/18 04:25:51;;;;;;;;;;;5.50;99.90;;;;;;5088586;28;19913;-73
2021/10/18 04:28:16;;;;;;;;;;;5.50;99.90;;;;;;5092912;28;20312;-73
2021/10/18 04:30:42;;;;;;;;;;;5.50;99.90;;;;;;5092583;28;19908;-75
2021/10/18 04:33:07;;;;;;;;;;;5.50;99.90;;;;;;5092559;28;19967;-73
2021/10/18 04:35:33;;;;;;;;;;;5.40;99.90;;;;;;5092508;28;19908;-72
2021/10/18 04:37:58;;;;;;;;;;;5.40;99.90;;;;;;5092597;28;19908;-73
2021/10/18 04:40:24;;;;;;;;;;;5.30;99.90;;;;;;5092802;28;19931;-72
2021/10/18 04:42:49;;;;;;;;;;;5.30;99.90;;;;;;5092137;28;19912;-73
2021/10/18 04:45:15;;;;;;;;;;;5.50;99.90;;;;;;5092536;28;19912;-73
2021/10/18 04:47:51;;;;;;;;;;;5.60;99.90;;;;;;5092750;28;19957;-74
2021/10/18 04:50:21;;;;;;;;;;;5.60;99.90;;;;;;5092377;28;19915;-75
2021/10/18 04:52:47;;;;;;;;;;;5.70;99.90;;;;;;5091923;28;20304;-75
2021/10/18 04:55:13;;;;;;;;;;;5.70;99.90;;;;;;5091046;28;20364;-75
2021/10/18 04:57:51;;;;;;;;;;;5.70;99.90;;;;;;5088160;28;19995;-73
2021/10/18 05:00:17;;;;;;;;;;;5.70;99.90;;;;;;5072068;28;20376;-74
2021/10/18 05:02:42;;;;;;;;;;;5.80;99.90;;;;;;5071552;28;19966;-73
2021/10/18 05:05:08;;;;;;;;;;;5.80;99.90;;;;;;5080846;28;19923;-73
2021/10/18 05:07:34;;;;;;;;;;;5.80;99.90;;;;;;5092343;28;19908;-73
2021/10/18 05:09:59;;;;;;;;;;;5.80;99.90;;;;;;5092197;28;19908;-74
2021/10/18 05:12:24;;;;;;;;;;;5.70;99.90;;;;;;5091724;28;19908;-73
2021/10/18 05:14:50;;;;;;;;;;;5.60;99.90;;;;;;5091579;28;19915;-73
2021/10/18 05:17:15;;;;;;;;;;;5.70;99.90;;;;;;5091950;28;19909;-74
2021/10/18 05:19:41;;;;;;;;;;;5.60;99.90;;;;;;5092067;28;19908;-73
2021/10/18 05:22:06;;;;;;;;;;;5.70;99.90;;;;;;5091890;28;19926;-74
2021/10/18 05:24:32;;;;;;;;;;;5.80;99.90;;;;;;5091918;28;20004;-74
2021/10/18 05:26:57;;;;;;;;;;;5.80;99.90;;;;;;5087679;28;19916;-76
2021/10/18 05:29:23;;;;;;;;;;;5.90;99.90;;;;;;5091744;28;19934;-73
2021/10/18 05:31:49;;;;;;;;;;;6.00;99.90;;;;;;5091717;28;19908;-74
2021/10/18 05:34:14;;;;;;;;;;;6.00;99.90;;;;;;5091155;28;19909;-74
2021/10/18 05:36:39;;;;;;;;;;;6.00;99.90;;;;;;5091830;28;19953;-75
2021/10/18 05:39:05;;;;;;;;;;;6.10;99.90;;;;;;5091775;28;19966;-73
2021/10/18 05:41:30;;;;;;;;;;;6.10;99.90;;;;;;5091977;28;19908;-73
2021/10/18 05:43:56;;;;;;;;;;;6.10;99.90;;;;;;5091279;28;19930;-74
2021/10/18 05:46:21;;;;;;;;;;;6.10;99.90;;;;;;5091667;28;20398;-73
2021/10/18 05:48:47;;;;;;;;;;;6.10;99.90;;;;;;5091639;28;19912;-74
2021/10/18 05:51:12;;;;;;;;;;;6.10;99.90;;;;;;5091841;28;20387;-74
2021/10/18 05:53:38;;;;;;;;;;;6.10;99.90;;;;;;5091143;28;19936;-74
2021/10/18 05:56:04;;;;;;;;;;;6.10;99.90;;;;;;5091577;28;20380;-73
2021/10/18 05:58:30;;;;;;;;;;;6.10;99.90;;;;;;5091533;28;20257;-73
2021/10/18 06:00:55;;;;;;;;;;;6.20;99.90;;;;;;5090359;28;19908;-73
2021/10/18 06:03:21;;;;;;;;;;;6.20;99.90;;;;;;5091123;28;20265;-74
2021/10/18 06:05:46;;;;;;;;;;;6.20;99.90;;;;;;5091163;28;20365;-74
2021/10/18 06:08:15;;;;;;;;;;;6.30;99.90;;;;;;5091285;28;20018;-73
2021/10/18 06:10:41;;;;;;;;;;;6.30;99.90;;;;;;5090877;28;19953;-75
2021/10/18 06:13:07;;;;;;;;;;;6.40;99.90;;;;;;5089053;28;19912;-74
2021/10/18 06:15:33;;;;;;;;;;;6.50;99.90;;;;;;5091547;28;19912;-74
2021/10/18 06:18:09;;;;;;;;;;;6.50;99.90;;;;;;5091812;28;19915;-74
2021/10/18 06:20:34;;;;;;;;;;;6.40;99.90;;;;;;5091873;28;19908;-73
2021/10/18 06:23:00;;;;;;;;;;;6.40;99.90;;;;;;5091632;28;19914;-73
2021/10/18 06:25:25;;;;;;;;;;;6.50;99.90;;;;;;5090701;28;19919;-73
2021/10/18 06:27:51;;;;;;;;;;;6.50;99.90;;;;;;5090569;28;19947;-74
2021/10/18 06:30:16;;;;;;;;;;;6.60;99.90;;;;;;5095764;28;19915;-73
2021/10/18 06:32:42;;;;;;;;;;;6.70;99.90;;;;;;5095456;28;19915;-73
2021/10/18 06:35:07;;;;;;;;;;;6.80;99.90;;;;;;5095826;28;20403;-73
2021/10/18 06:37:33;;;;;;;;;;;6.80;99.90;;;;;;5095859;28;20273;-75
2021/10/18 06:39:59;;;;;;;;;;;6.80;99.90;;;;;;5095793;28;19998;-73
2021/10/18 06:42:24;;;;;;;;;;;6.90;99.90;;;;;;5095395;28;19915;-73
2021/10/18 06:44:50;;;;;;;;;;;6.90;99.90;;;;;;5094714;28;19915;-74
2021/10/18 06:47:17;;;;;;;;;;;6.80;99.90;;;;;;5095450;28;19912;-74
2021/10/18 06:49:42;;;;;;;;;;;6.80;99.90;;;;;;5094268;28;19908;-73
2021/10/18 06:52:08;;;;;;;;;;;6.90;99.90;;;;;;5095518;28;19969;-74
2021/10/18 06:54:39;;;;;;;;;;;6.90;99.90;;;;;;5093745;28;19912;-75
2021/10/18 06:57:05;;;;;;;;;;;7.00;99.90;;;;;;5098325;28;19953;-73
2021/10/18 06:59:31;;;;;;;;;;;6.90;99.90;;;;;;5095538;28;19912;-73
2021/10/18 07:01:57;;;;;;;;;;;6.80;99.90;;;;;;5095222;28;19954;-73
2021/10/18 07:04:23;;;;;;;;;;;6.90;99.90;;;;;;5094798;28;20308;-73
2021/10/18 07:06:49;;;;;;;;;;;6.80;99.90;;;;;;5095293;28;19959;-73
2021/10/18 07:09:14;;;;;;;;;;;6.80;99.90;;;;;;5095762;28;19912;-73
2021/10/18 07:11:40;;;;;;;;;;;6.90;99.90;;;;;;5094981;28;19961;-76
2021/10/18 07:14:05;;;;;;;;;;;7.00;99.90;;;;;;5094777;28;19912;-73
2021/10/18 07:16:31;;;;;;;;;;;7.10;99.90;;;;;;5095308;28;20284;-73
2021/10/18 07:18:56;;;;;;;;;;;7.10;99.90;;;;;;5095085;28;20280;-73
2021/10/18 07:21:22;;;;;;;;;;;7.10;99.90;;;;;;5095012;28;19908;-73
2021/10/18 07:23:51;;;;;;;;;;;7.10;99.90;;;;;;5094602;28;20376;-73
2021/10/18 07:26:18;;;;;;;;;;;7.20;99.90;;;;;;5089242;28;19916;-73
2021/10/18 07:28:43;;;;;;;;;;;7.20;99.90;;;;;;5094701;28;19908;-73
2021/10/18 07:31:09;;;;;;;;;;;7.20;99.90;;;;;;5094523;28;20015;-73
2021/10/18 07:33:35;;;;;;;;;;;7.00;99.90;;;;;;5094327;28;19915;-75
2021/10/18 07:36:08;;;;;;;;;;;7.00;99.90;;;;;;5094483;28;19909;-73
2021/10/18 07:38:35;;;;;;;;;;;7.00;99.90;;;;;;5094337;28;19908;-73
2021/10/18 07:41:00;;;;;;;;;;;7.10;99.90;;;;;;5094338;28;19947;-73
2021/10/18 07:43:26;;;;;;;;;;;7.10;99.90;;;;;;5094279;28;19908;-73
2021/10/18 07:45:51;;;;;;;;;;;7.20;99.90;;;;;;5094130;28;20395;-73
2021/10/18 07:48:17;;;;;;;;;;;7.30;99.90;;;;;;5093141;28;19959;-75
2021/10/18 07:50:42;;;;;;;;;;;7.40;99.90;;;;;;5094435;28;20376;-73
2021/10/18 07:53:08;;;;;;;;;;;7.40;99.90;;;;;;5094225;28;19920;-73
2021/10/18 07:55:36;;;;;;;;;;;7.30;99.90;;;;;;5092060;28;19908;-73
2021/10/18 07:58:01;;;;;;;;;;;7.40;99.90;;;;;;5094190;28;19908;-74
2021/10/18 08:00:27;;;;;;;;;;;7.50;99.90;;;;;;5114629;28;19908;-73
2021/10/18 08:02:52;;;;;;;;;;;7.50;99.90;;;;;;5114192;28;19915;-73
2021/10/18 08:05:18;;;;;;;;;;;7.50;99.90;;;;;;5114236;28;20010;-74
2021/10/18 08:07:46;;;;;;;;;;;7.60;99.90;;;;;;5114421;28;19907;-74
2021/10/18 08:10:13;;;;;;;;;;;7.70;99.90;;;;;;5113027;28;19914;-74
2021/10/18 08:12:38;;;;;;;;;;;7.70;99.90;;;;;;5113927;28;19912;-73
2021/10/18 08:15:04;;;;;;;;;;;7.70;99.90;;;;;;5113831;28;19938;-73
2021/10/18 08:17:29;;;;;;;;;;;7.80;99.90;;;;;;5113295;28;19977;-74
2021/10/18 08:19:55;;;;;;;;;;;7.80;99.90;;;;;;5094011;28;20329;-73
2021/10/18 08:22:20;;;;;;;;;;;7.80;99.90;;;;;;5090922;28;19909;-73
2021/10/18 08:24:46;;;;;;;;;;;7.70;99.90;;;;;;5092201;28;19939;-73
2021/10/18 08:27:11;;;;;;;;;;;7.80;99.90;;;;;;5084570;28;19927;-77
2021/10/18 08:29:37;;;;;;;;;;;7.80;99.90;;;;;;5092753;28;19912;-73
2021/10/18 08:32:03;;;;;;;;;;;7.90;99.90;;;;;;5092572;28;20479;-73
2021/10/18 08:34:28;;;;;;;;;;;7.90;99.90;;;;;;5092335;28;19919;-73
2021/10/18 08:36:54;;;;;;;;;;;7.90;99.90;;;;;;5100053;28;19912;-73
2021/10/18 08:42:07;;;;;;;;;;;8.10;99.90;;;;;;5097091;28;19915;-73
2021/10/18 08:44:34;;;;;;;;;;;8.30;99.90;;;;;;5092268;28;19999;-75
2021/10/18 08:47:02;;;;;;;;;;;8.00;99.90;;;;;;5092614;28;20001;-73
2021/10/18 08:49:28;;;;;;;;;;;8.20;99.90;;;;;;5085366;28;19909;-74
2021/10/18 08:51:54;;;;;;;;;;;8.00;99.90;;;;;;5090885;28;19908;-73
2021/10/18 08:54:19;;;;;;;;;;;8.20;99.90;;;;;;5091971;28;19915;-73
2021/10/18 08:56:45;;;;;;;;;;;8.30;99.90;;;;;;5088026;28;19951;-73
2021/10/18 08:59:10;;;;;;;;;;;8.40;99.90;;;;;;5091959;28;19908;-73
2021/10/18 09:01:55;;;;;;;;;;;8.20;99.90;;;;;;5091292;28;19909;-73
2021/10/18 09:04:25;;;;;;;;;;;8.30;99.90;;;;;;5091651;28;19912;-75
2021/10/18 09:06:51;;;;;;;;;;;8.30;99.90;;;;;;5092087;28;19923;-77
2021/10/18 09:09:19;;;;;;;;;;;8.30;99.90;;;;;;5092047;28;19909;-73
2021/10/18 09:11:47;;;;;;;;;;;8.50;99.90;;;;;;5092037;28;19914;-74
2021/10/18 09:14:13;;;;;;;;;;;8.60;99.90;;;;;;5091582;28;19916;-75
2021/10/18 09:16:43;;;;;;;;;;;8.80;99.90;;;;;;5091695;28;19954;-76
2021/10/18 09:19:11;;;;;;;;;;;8.70;99.90;;;;;;5091990;28;20327;-75
2021/10/18 09:21:38;;;;;;;;;;;8.60;99.90;;;;;;5091941;28;19925;-75
2021/10/18 09:24:05;;;;;;;;;;;8.70;99.90;;;;;;5089973;28;19947;-73
2021/10/18 09:26:32;;;;;;;;;;;8.70;99.90;;;;;;5087646;28;19957;-73
2021/10/18 09:29:26;;;;;;;;;;;8.70;99.90;;;;;;5091651;28;19908;-75
2021/10/18 09:31:59;;;;;;;;;;;8.80;99.90;;;;;;5082279;28;19942;-77
2021/10/18 09:34:30;;;;;;;;;;;8.70;99.90;;;;;;5086093;28;19908;-73
2021/10/18 09:37:03;;;;;;;;;;;8.90;99.90;;;;;;5087942;28;19939;-76
2021/10/18 09:39:29;;;;;;;;;;;8.80;99.90;;;;;;5091321;28;19908;-73
2021/10/18 09:41:57;;;;;;;;;;;9.30;99.90;;;;;;5091427;28;19919;-73
2021/10/18 09:44:48;;;;;;;;;;;9.40;99.90;;;;;;5091296;28;20288;-73
2021/10/18 09:47:49;;;;;;;;;;;9.30;99.90;;;;;;5091391;28;19919;-75
2021/10/18 10:52:33;;;;;;;;;;;12.20;99.90;;;;;;5111365;28;20256;-74
2021/10/18 10:55:16;;;;;;;;;;;12.00;99.90;;;;;;5110996;28;20309;-73
2021/10/18 10:57:42;;;;;;;;;;;11.70;99.90;;;;;;5109642;28;19908;-73
2021/10/18 11:00:07;;;;;;;;;;;12.20;99.90;;;;;;5111272;28;20277;-76
2021/10/18 11:02:34;;;;;;;;;;;11.90;99.90;;;;;;5110887;28;19915;-73
2021/10/18 11:05:00;;;;;;;;;;;11.50;99.90;;;;;;5094452;28;19919;-73
2021/10/18 11:07:35;;;;;;;;;;;11.30;99.90;;;;;;5090472;28;19911;-75
2021/10/18 11:10:00;;;;;;;;;;;11.40;99.90;;;;;;5091094;28;19912;-73
2021/10/18 11:12:36;;;;;;;;;;;11.60;99.90;;;;;;5090093;28;19915;-75
2021/10/18 11:15:04;;;;;;;;;;;12.00;99.90;;;;;;5094388;28;19914;-76
2021/10/18 11:17:32;;;;;;;;;;;12.70;99.90;;;;;;5093919;28;19912;-76
2021/10/18 11:19:59;;;;;;;;;;;14.50;99.90;;;;;;5094346;28;19908;-74
2021/10/18 11:22:26;;;;;;;;;;;15.50;99.90;;;;;;5093744;28;20366;-74
2021/10/18 11:24:51;;;;;;;;;;;14.10;99.90;;;;;;5086541;28;20284;-74
2021/10/18 11:27:43;;;;;;;;;;;12.60;99.90;;;;;;5094240;28;19912;-73
2021/10/18 11:30:13;;;;;;;;;;;11.70;99.90;;;;;;5091628;28;19912;-74
2021/10/18 11:32:38;;;;;;;;;;;11.40;99.90;;;;;;5093684;28;19965;-76
2021/10/18 11:35:05;;;;;;;;;;;11.30;99.90;;;;;;5083650;28;20378;-73
2021/10/18 11:37:45;;;;;;;;;;;11.30;99.90;;;;;;5088163;28;20371;-75
2021/10/18 11:40:12;;;;;;;;;;;11.10;99.90;;;;;;5093530;28;19976;-74
2021/10/18 11:42:46;;;;;;;;;;;11.00;99.90;;;;;;5093213;28;20408;-73
2021/10/18 11:45:15;;;;;;;;;;;11.10;99.90;;;;;;5093596;28;19997;-73
2021/10/18 11:47:42;;;;;;;;;;;11.40;99.90;;;;;;5093761;28;19995;-76
2021/10/18 11:50:25;;;;;;;;;;;11.50;99.90;;;;;;5093620;28;19908;-73
2021/10/18 11:52:52;;;;;;;;;;;11.50;99.90;;;;;;5093206;28;19908;-73
2021/10/18 11:55:23;;;;;;;;;;;11.40;99.90;;;;;;5093352;28;19912;-73
2021/10/18 11:57:49;;;;;;;;;;;11.30;99.90;;;;;;5093655;28;19919;-73
2021/10/18 12:00:28;;;;;;;;;;;11.30;99.90;;;;;;5090893;28;19931;-74
2021/10/18 12:02:59;;;;;;;;;;;11.50;99.90;;;;;;5093296;28;19950;-73
2021/10/18 12:05:26;;;;;;;;;;;11.50;99.90;;;;;;5085173;28;19916;-73
2021/10/18 12:07:52;;;;;;;;;;;11.50;99.90;;;;;;5093463;28;19994;-73
2021/10/18 12:10:19;;;;;;;;;;;11.60;99.90;;;;;;5093174;28;20382;-73
2021/10/18 12:13:04;;;;;;;;;;;11.70;99.90;;;;;;5091682;28;20529;-73
2021/10/18 12:15:30;;;;;;;;;;;11.80;99.90;;;;;;5093054;28;19908;-76
2021/10/18 12:17:56;;;;;;;;;;;11.90;99.90;;;;;;5092947;28;20002;-73
2021/10/18 12:20:22;;;;;;;;;;;12.00;99.90;;;;;;5093075;28;19962;-74
2021/10/18 12:22:57;;;;;;;;;;;11.90;99.90;;;;;;5092734;28;19934;-73
2021/10/18 12:25:22;;;;;;;;;;;11.90;99.90;;;;;;5096454;28;19907;-73
2021/10/18 12:27:48;;;;;;;;;;;12.10;99.90;;;;;;5112998;28;20265;-74
2021/10/18 12:30:32;;;;;;;;;;;12.30;99.90;;;;;;5113408;28;20348;-73
2021/10/18 12:33:27;;;;;;;;;;;12.30;99.90;;;;;;5112890;28;20287;-75
2021/10/18 12:35:56;;;;;;;;;;;12.40;99.90;;;;;;5082072;28;19908;-73
2021/10/18 12:38:24;;;;;;;;;;;12.20;99.90;;;;;;5111771;28;19908;-74
2021/10/18 12:40:50;;;;;;;;;;;12.30;99.90;;;;;;5112738;28;20400;-75
2021/10/18 12:43:26;;;;;;;;;;;12.40;99.90;;;;;;5112662;28;19925;-73
2021/10/18 12:45:51;;;;;;;;;;;12.40;99.90;;;;;;5111608;28;19920;-73
2021/10/18 12:48:23;;;;;;;;;;;12.40;99.90;;;;;;5112990;28;19908;-73
2021/10/18 12:50:49;;;;;;;;;;;12.60;99.90;;;;;;5111764;28;19951;-73
2021/10/18 12:53:30;;;;;;;;;;;12.80;99.90;;;;;;5112292;28;19951;-73
2021/10/18 12:55:56;;;;;;;;;;;12.90;99.90;;;;;;5112765;28;19961;-72
2021/10/18 12:58:22;;;;;;;;;;;13.00;99.90;;;;;;5112650;28;19961;-73
2021/10/18 13:00:47;;;;;;;;;;;13.00;99.90;;;;;;5112786;28;20384;-73
2021/10/18 13:03:13;;;;;;;;;;;13.10;99.90;;;;;;5112270;28;20416;-73
2021/10/18 13:05:38;;;;;;;;;;;13.30;99.90;;;;;;5090025;28;19916;-76
2021/10/18 13:08:04;;;;;;;;;;;13.30;99.90;;;;;;5091621;28;19915;-72
2021/10/18 13:10:31;;;;;;;;;;;13.30;99.90;;;;;;5092105;28;19931;-73
2021/10/18 13:12:58;;;;;;;;;;;13.30;99.90;;;;;;5092050;28;20291;-73
2021/10/18 13:15:23;;;;;;;;;;;13.20;99.90;;;;;;5092197;28;20286;-72
2021/10/18 13:17:49;;;;;;;;;;;13.40;99.90;;;;;;5092125;28;19912;-74
2021/10/18 13:20:16;;;;;;;;;;;13.40;99.90;;;;;;5091812;28;19908;-76
2021/10/18 13:22:43;;;;;;;;;;;13.40;99.90;;;;;;5091462;28;19912;-73
2021/10/18 13:25:09;;;;;;;;;;;13.40;99.90;;;;;;5093006;28;19916;-72
2021/10/18 13:27:36;;;;;;;;;;;13.40;99.90;;;;;;5112144;28;20356;-72
2021/10/18 13:30:03;;;;;;;;;;;13.50;99.90;;;;;;5112037;28;19990;-74
2021/10/18 13:32:28;;;;;;;;;;;13.60;99.90;;;;;;5110431;28;19918;-73
2021/10/18 13:34:56;;;;;;;;;;;13.60;99.90;;;;;;5094634;28;19912;-72
2021/10/18 13:37:23;;;;;;;;;;;13.70;99.90;;;;;;5083805;28;20035;-73
2021/10/18 13:39:48;;;;;;;;;;;13.80;99.90;;;;;;5091132;28;20391;-73
2021/10/18 13:42:14;;;;;;;;;;;13.80;99.90;;;;;;5091265;28;19908;-73
2021/10/18 13:44:39;;;;;;;;;;;13.60;99.90;;;;;;5091336;28;20318;-75
2021/10/18 13:47:05;;;;;;;;;;;13.70;99.90;;;;;;5091504;28;19912;-73
2021/10/18 13:49:30;;;;;;;;;;;13.80;99.90;;;;;;5091451;28;19912;-76
2021/10/18 13:51:56;;;;;;;;;;;13.70;99.90;;;;;;5091632;28;19908;-75
2021/10/18 13:54:21;;;;;;;;;;;13.70;99.90;;;;;;5089698;28;20061;-73
2021/10/18 13:56:47;;;;;;;;;;;13.60;99.90;;;;;;5091532;28;19965;-73
2021/10/18 13:59:13;;;;;;;;;;;13.70;99.90;;;;;;5091411;28;19930;-73
2021/10/18 14:01:38;;;;;;;;;;;13.70;99.90;;;;;;5084098;28;19919;-73
2021/10/18 14:04:04;;;;;;;;;;;13.70;99.90;;;;;;5099889;28;20220;-77
2021/10/18 14:06:30;;;;;;;;;;;13.80;99.90;;;;;;5090685;28;19920;-73
2021/10/18 14:08:56;;;;;;;;;;;13.80;99.90;;;;;;5091054;28;20162;-73
2021/10/18 14:11:21;;;;;;;;;;;13.70;99.90;;;;;;5091219;28;20488;-73
2021/10/18 14:13:47;;;;;;;;;;;13.70;99.90;;;;;;5090744;28;19912;-73
2021/10/18 14:16:12;;;;;;;;;;;13.70;99.90;;;;;;5091543;28;19915;-75
2021/10/18 14:18:38;;;;;;;;;;;13.80;99.90;;;;;;5090954;28;19918;-73
2021/10/18 14:21:04;;;;;;;;;;;13.60;99.90;;;;;;5090986;28;19962;-73
2021/10/18 14:23:32;;;;;;;;;;;13.60;99.90;;;;;;5090603;28;19908;-72
2021/10/18 14:25:58;;;;;;;;;;;13.70;99.90;;;;;;5087869;28;19955;-73
2021/10/18 14:28:24;;;;;;;;;;;13.80;99.90;;;;;;5090891;28;19963;-72
2021/10/18 14:30:49;;;;;;;;;;;13.70;99.90;;;;;;5091137;28;19912;-73
2021/10/18 14:33:15;;;;;;;;;;;13.70;99.90;;;;;;5090588;28;19908;-76
2021/10/18 14:35:40;;;;;;;;;;;13.60;99.90;;;;;;5075195;28;20284;-73
2021/10/18 14:38:06;;;;;;;;;;;13.60;99.90;;;;;;5089762;28;19936;-73
2021/10/18 14:40:32;;;;;;;;;;;13.50;99.90;;;;;;5091003;28;19908;-73
2021/10/18 14:42:57;;;;;;;;;;;13.50;99.90;;;;;;5090346;28;19953;-73
2021/10/18 14:45:23;;;;;;;;;;;13.30;99.90;;;;;;5090771;28;19908;-76
2021/10/18 14:47:48;;;;;;;;;;;13.30;99.90;;;;;;5091337;28;19912;-72
2021/10/18 14:50:14;;;;;;;;;;;13.10;99.90;;;;;;5094773;28;20383;-72
2021/10/18 14:52:39;;;;;;;;;;;13.30;99.90;;;;;;5093719;28;20015;-73
2021/10/18 14:55:07;;;;;;;;;;;13.20;99.90;;;;;;5094469;28;19909;-76
2021/10/18 14:57:33;;;;;;;;;;;13.00;99.90;;;;;;5094892;28;19916;-73
2021/10/18 14:59:59;;;;;;;;;;;13.00;99.90;;;;;;5094523;28;19912;-73
2021/10/18 15:02:27;;;;;;;;;;;13.00;99.90;;;;;;5094120;28;19909;-73
2021/10/18 15:04:55;;;;;;;;;;;13.00;99.90;;;;;;5086472;28;20394;-74
2021/10/18 15:07:23;;;;;;;;;;;13.30;99.90;;;;;;5094367;28;19912;-73
2021/10/18 15:09:49;;;;;;;;;;;13.60;99.90;;;;;;5094291;28;19958;-73
2021/10/18 15:12:16;;;;;;;;;;;14.60;99.90;;;;;;5094136;28;19944;-73
2021/10/18 15:14:42;;;;;;;;;;;14.80;99.90;;;;;;5094129;28;19974;-73
2021/10/18 15:17:08;;;;;;;;;;;15.10;99.90;;;;;;5093140;28;19937;-77
2021/10/18 15:19:34;;;;;;;;;;;15.00;99.90;;;;;;5094422;28;19908;-77
2021/10/18 15:22:00;;;;;;;;;;;15.30;99.90;;;;;;5094017;28;20355;-75
2021/10/18 15:24:26;;;;;;;;;;;14.40;99.90;;;;;;5089818;28;20337;-73
2021/10/18 15:26:51;;;;;;;;;;;13.60;99.90;;;;;;5089391;28;19966;-73
2021/10/18 15:29:17;;;;;;;;;;;13.20;99.90;;;;;;5094681;28;20049;-73